createdAt,value
2022-11-20T00:01:42.733Z,-8.50
2022-11-20T00:04:12.840Z,-8.50
2022-11-20T00:06:41.329Z,-8.50
2022-11-20T00:09:12.726Z,-8.50
2022-11-20T00:11:41.434Z,-8.50
2022-11-20T00:14:13.754Z,-8.60
2022-11-20T00:16:43.297Z,-8.60
2022-11-20T00:19:12.663Z,-8.60
2022-11-20T00:21:41.336Z,-8.60
2022-11-20T00:24:11.530Z,-8.70
2022-11-20T00:26:40.226Z,-8.70
2022-11-20T00:29:11.189Z,-8.70
2022-11-20T00:31:41.041Z,-8.70
2022-11-20T00:34:09.711Z,-8.70
2022-11-20T00:36:38.342Z,-8.70
2022-11-20T00:39:07.361Z,-8.70
2022-11-20T00:41:36.179Z,-8.70
2022-11-20T00:44:05.152Z,-8.60
2022-11-20T00:46:33.942Z,-8.60
2022-11-20T00:49:04.075Z,-8.60
2022-11-20T00:51:32.569Z,-8.70
2022-11-20T00:54:03.142Z,-8.70
2022-11-20T00:56:31.676Z,-8.70
2022-11-20T00:59:02.055Z,-8.70
2022-11-20T01:01:31.452Z,-8.70
2022-11-20T01:04:02.259Z,-8.70
2022-11-20T01:06:34.434Z,-8.70
2022-11-20T01:09:05.963Z,-8.70
2022-11-20T01:11:36.025Z,-8.70
2022-11-20T01:14:06.643Z,-8.70
2022-11-20T01:16:36.510Z,-8.70
2022-11-20T01:19:06.985Z,-8.70
2022-11-20T01:21:38.511Z,-8.70
2022-11-20T01:24:09.163Z,-8.70
2022-11-20T01:26:39.882Z,-8.70
2022-11-20T01:29:09.144Z,-8.70
2022-11-20T01:31:39.456Z,-8.70
2022-11-20T01:34:09.666Z,-8.70
2022-11-20T01:36:40.674Z,-8.70
2022-11-20T01:39:13.508Z,-8.70
2022-11-20T01:42:00.068Z,-8.70
2022-11-20T01:44:50.055Z,-8.70
2022-11-20T01:47:23.161Z,-8.70
2022-11-20T01:49:57.228Z,-8.80
2022-11-20T01:52:33.345Z,-8.80
2022-11-20T01:55:06.688Z,-8.80
2022-11-20T01:57:37.901Z,-8.90
2022-11-20T02:00:10.490Z,-8.90
2022-11-20T02:02:43.978Z,-8.90
2022-11-20T02:05:20.910Z,-8.90
2022-11-20T02:07:51.687Z,-9.00
2022-11-20T02:10:21.278Z,-9.00
2022-11-20T02:13:08.485Z,-9.00
2022-11-20T02:15:38.202Z,-9.00
2022-11-20T02:18:07.808Z,-9.00
2022-11-20T02:20:36.414Z,-9.00
2022-11-20T02:23:10.900Z,-9.00
2022-11-20T02:25:44.017Z,-9.00
2022-11-20T02:28:12.801Z,-9.10
2022-11-20T02:30:41.650Z,-9.10
2022-11-20T02:33:10.509Z,-9.10
2022-11-20T02:35:46.345Z,-9.10
2022-11-20T02:38:16.524Z,-9.10
2022-11-20T02:40:51.429Z,-9.10
2022-11-20T02:43:23.296Z,-9.00
2022-11-20T02:45:52.272Z,-9.00
2022-11-20T02:48:20.973Z,-9.00
2022-11-20T02:50:49.355Z,-8.90
2022-11-20T02:53:18.613Z,-8.90
2022-11-20T02:55:48.687Z,-8.90
2022-11-20T02:58:17.380Z,-9.00
2022-11-20T03:00:46.422Z,-9.00
2022-11-20T03:03:15.496Z,-9.00
2022-11-20T03:05:44.926Z,-9.00
2022-11-20T03:08:14.251Z,-9.10
2022-11-20T03:10:43.328Z,-9.10
2022-11-20T03:13:15.054Z,-9.10
2022-11-20T03:15:44.082Z,-9.10
2022-11-20T03:18:14.621Z,-9.00
2022-11-20T03:20:43.758Z,-9.00
2022-11-20T03:23:12.446Z,-9.00
2022-11-20T03:25:43.200Z,-9.10
2022-11-20T03:28:12.713Z,-9.10
2022-11-20T03:30:43.820Z,-9.10
2022-11-20T03:33:13.629Z,-9.10
2022-11-20T03:35:42.236Z,-9.20
2022-11-20T03:38:11.199Z,-9.10
2022-11-20T03:40:40.359Z,-9.10
2022-11-20T03:43:09.894Z,-9.20
2022-11-20T03:45:39.262Z,-9.20
2022-11-20T03:48:11.179Z,-9.20
2022-11-20T03:50:41.142Z,-9.20
2022-11-20T03:53:10.609Z,-9.20
2022-11-20T03:55:40.346Z,-9.20
2022-11-20T03:58:10.445Z,-9.10
2022-11-20T04:00:40.423Z,-9.10
2022-11-20T04:03:11.602Z,-9.10
2022-11-20T04:05:40.700Z,-9.10
2022-11-20T04:08:09.908Z,-9.10
2022-11-20T04:10:39.244Z,-9.10
2022-11-20T04:13:08.937Z,-9.10
2022-11-20T04:15:39.624Z,-9.20
2022-11-20T04:18:08.313Z,-9.20
2022-11-20T04:20:38.342Z,-9.30
2022-11-20T04:23:06.817Z,-9.30
2022-11-20T04:25:35.419Z,-9.30
2022-11-20T04:28:03.784Z,-9.40
2022-11-20T04:30:34.431Z,-9.30
2022-11-20T04:33:03.062Z,-9.30
2022-11-20T04:35:31.579Z,-9.40
2022-11-20T04:38:01.740Z,-9.40
2022-11-20T04:40:30.954Z,-9.40
2022-11-20T04:42:59.754Z,-9.40
2022-11-20T04:45:28.761Z,-9.40
2022-11-20T04:47:57.370Z,-9.30
2022-11-20T04:50:26.064Z,-9.30
2022-11-20T04:52:54.568Z,-9.30
2022-11-20T04:55:24.475Z,-9.30
2022-11-20T04:57:53.541Z,-9.30
2022-11-20T05:00:22.475Z,-9.20
2022-11-20T05:02:51.309Z,-9.30
2022-11-20T05:05:20.621Z,-9.20
2022-11-20T05:07:49.453Z,-9.30
2022-11-20T05:10:18.260Z,-9.30
2022-11-20T05:12:48.525Z,-9.40
2022-11-20T05:15:17.572Z,-9.40
2022-11-20T05:17:49.794Z,-9.50
2022-11-20T05:20:18.818Z,-9.50
2022-11-20T05:22:47.827Z,-9.60
2022-11-20T05:25:16.842Z,-9.60
2022-11-20T05:27:47.072Z,-9.70
2022-11-20T05:30:16.547Z,-9.70
2022-11-20T05:32:45.387Z,-9.70
2022-11-20T05:35:14.207Z,-9.60
2022-11-20T05:37:43.396Z,-9.70
2022-11-20T05:40:13.596Z,-9.60
2022-11-20T05:42:44.661Z,-9.70
2022-11-20T05:45:14.698Z,-9.70
2022-11-20T05:47:43.094Z,-9.70
2022-11-20T05:50:11.936Z,-9.70
2022-11-20T05:52:40.917Z,-9.70
2022-11-20T05:55:10.419Z,-9.80
2022-11-20T05:57:39.618Z,-9.80
2022-11-20T06:00:10.014Z,-9.80
2022-11-20T06:02:40.286Z,-9.80
2022-11-20T06:05:09.867Z,-9.80
2022-11-20T06:07:38.680Z,-9.80
2022-11-20T06:10:08.103Z,-9.70
2022-11-20T06:12:36.871Z,-9.70
2022-11-20T06:15:06.440Z,-9.70
2022-11-20T06:17:34.813Z,-9.80
2022-11-20T06:20:05.346Z,-9.80
2022-11-20T06:22:35.667Z,-9.80
2022-11-20T06:25:04.994Z,-9.80
2022-11-20T06:27:34.435Z,-9.80
2022-11-20T06:30:04.007Z,-9.70
2022-11-20T06:32:33.832Z,-9.70
2022-11-20T06:35:04.577Z,-9.70
2022-11-20T06:37:33.901Z,-9.60
2022-11-20T06:40:03.570Z,-9.60
2022-11-20T06:42:33.465Z,-9.60
2022-11-20T06:45:02.235Z,-9.60
2022-11-20T06:47:34.397Z,-9.60
2022-11-20T06:50:04.470Z,-9.60
2022-11-20T06:52:33.202Z,-9.50
2022-11-20T06:55:01.869Z,-9.50
2022-11-20T06:57:30.785Z,-9.40
2022-11-20T06:59:59.226Z,-9.40
2022-11-20T07:02:27.641Z,-9.30
2022-11-20T07:04:55.966Z,-9.30
2022-11-20T07:07:26.020Z,-9.20
2022-11-20T07:09:54.509Z,-9.20
2022-11-20T07:12:23.087Z,-9.10
2022-11-20T07:14:51.617Z,-9.00
2022-11-20T07:17:20.179Z,-8.90
2022-11-20T07:19:48.663Z,-8.90
2022-11-20T07:22:17.174Z,-8.80
2022-11-20T07:24:47.117Z,-8.60
2022-11-20T07:27:15.727Z,-8.50
2022-11-20T07:29:44.355Z,-8.30
2022-11-20T07:32:12.933Z,-8.20
2022-11-20T07:34:46.963Z,-8.00
2022-11-20T07:37:22.308Z,-8.00
2022-11-20T07:39:56.593Z,-7.80
2022-11-20T07:42:28.632Z,-7.60
2022-11-20T07:44:58.870Z,-7.40
2022-11-20T07:47:29.564Z,-7.10
2022-11-20T07:49:57.982Z,-6.70
2022-11-20T07:52:26.452Z,-6.20
2022-11-20T07:54:56.329Z,-5.70
2022-11-20T07:57:28.277Z,-5.30
2022-11-20T07:59:57.071Z,-4.90
2022-11-20T08:02:25.652Z,-4.50
2022-11-20T08:04:54.578Z,-4.30
2022-11-20T08:07:24.363Z,-4.10
2022-11-20T08:09:52.955Z,-4.00
2022-11-20T08:12:43.351Z,-3.90
2022-11-20T08:15:13.468Z,-3.70
2022-11-20T08:17:42.506Z,-3.60
2022-11-20T08:20:12.011Z,-3.40
2022-11-20T08:22:40.570Z,-3.20
2022-11-20T08:25:09.785Z,-3.00
2022-11-20T08:27:39.831Z,-2.70
2022-11-20T08:30:12.155Z,-2.50
2022-11-20T08:32:40.954Z,-2.30
2022-11-20T08:35:10.846Z,-2.20
2022-11-20T08:37:42.579Z,-2.00
2022-11-20T08:40:18.340Z,-1.70
2022-11-20T08:42:53.681Z,-1.60
2022-11-20T08:45:22.564Z,-1.40
2022-11-20T08:47:51.104Z,-1.30
2022-11-20T08:50:19.999Z,-1.20
2022-11-20T08:52:48.520Z,-1.00
2022-11-20T08:55:17.040Z,-0.90
2022-11-20T08:57:50.566Z,-0.80
2022-11-20T09:00:21.396Z,-0.60
2022-11-20T09:02:50.000Z,-0.50
2022-11-20T09:05:18.834Z,-0.20
2022-11-20T09:07:48.871Z,0.10
2022-11-20T09:10:25.805Z,0.30
2022-11-20T09:12:56.165Z,0.60
2022-11-20T09:15:27.866Z,1.50
2022-11-20T09:18:00.568Z,2.80
2022-11-20T09:20:31.008Z,3.60
2022-11-20T09:23:00.040Z,3.90
2022-11-20T09:25:29.339Z,4.10
2022-11-20T09:27:59.092Z,4.30
2022-11-20T09:30:29.656Z,4.30
2022-11-20T09:32:58.787Z,4.20
2022-11-20T09:35:27.583Z,4.00
2022-11-20T09:37:56.587Z,3.80
2022-11-20T09:40:27.907Z,3.60
2022-11-20T09:43:01.970Z,3.50
2022-11-20T09:45:47.029Z,3.30
2022-11-20T09:48:31.299Z,3.10
2022-11-20T09:51:09.794Z,3.00
2022-11-20T09:53:53.511Z,2.90
2022-11-20T09:56:23.195Z,2.90
2022-11-20T09:58:53.646Z,2.80
2022-11-20T10:01:28.268Z,2.80
2022-11-20T10:04:01.167Z,2.70
2022-11-20T10:06:33.087Z,2.50
2022-11-20T10:09:17.210Z,2.50
2022-11-20T10:11:58.846Z,2.70
2022-11-20T10:14:38.095Z,3.10
2022-11-20T10:17:21.193Z,3.40
2022-11-20T10:20:13.191Z,3.80
2022-11-20T10:22:51.498Z,4.40
2022-11-20T10:25:22.406Z,4.80
2022-11-20T10:28:20.925Z,5.10
2022-11-20T10:30:56.506Z,5.20
2022-11-20T10:33:38.781Z,4.90
2022-11-20T10:36:22.191Z,4.50
2022-11-20T10:38:56.173Z,4.10
2022-11-20T10:41:30.010Z,3.80
2022-11-20T10:44:06.905Z,3.40
2022-11-20T10:46:44.697Z,3.20
2022-11-20T10:49:17.150Z,2.90
2022-11-20T10:52:00.148Z,2.80
2022-11-20T10:54:39.230Z,2.70
2022-11-20T10:57:19.824Z,2.50
2022-11-20T11:00:21.574Z,2.50
2022-11-20T11:02:51.844Z,2.40
2022-11-20T11:05:34.824Z,2.40
2022-11-20T11:08:04.935Z,2.40
2022-11-20T11:10:42.618Z,2.40
2022-11-20T11:13:21.795Z,2.30
2022-11-20T11:15:50.088Z,2.40
2022-11-20T11:18:27.282Z,2.30
2022-11-20T11:20:58.574Z,2.40
2022-11-20T11:23:34.928Z,2.30
2022-11-20T11:26:05.405Z,2.40
2022-11-20T11:28:33.904Z,2.30
2022-11-20T11:31:02.229Z,2.30
2022-11-20T11:33:32.002Z,2.30
2022-11-20T11:36:03.758Z,2.30
2022-11-20T11:38:37.515Z,2.20
2022-11-20T11:41:06.690Z,2.20
2022-11-20T11:43:55.173Z,2.20
2022-11-20T11:46:31.003Z,2.10
2022-11-20T11:49:01.103Z,2.00
2022-11-20T11:51:38.456Z,1.90
2022-11-20T11:54:18.538Z,1.90
2022-11-20T11:56:47.910Z,1.80
2022-11-20T11:59:25.116Z,1.70
2022-11-20T12:01:59.107Z,1.60
2022-11-20T12:04:42.573Z,1.60
2022-11-20T12:07:44.740Z,1.60
2022-11-20T12:10:08.299Z,1.50
2022-11-20T12:12:43.167Z,1.40
2022-11-20T12:15:15.097Z,1.50
2022-11-20T12:17:43.593Z,1.50
2022-11-20T12:20:16.187Z,1.50
2022-11-20T12:22:54.830Z,1.50
2022-11-20T12:25:26.488Z,1.50
2022-11-20T12:28:16.649Z,1.50
2022-11-20T12:30:59.447Z,1.40
2022-11-20T12:33:56.279Z,1.50
2022-11-20T12:36:36.653Z,1.50
2022-11-20T12:39:34.003Z,1.40
2022-11-20T12:42:59.168Z,1.40
2022-11-20T12:45:50.988Z,1.50
2022-11-20T12:48:46.061Z,1.40
2022-11-20T12:51:33.165Z,1.40
2022-11-20T12:54:24.277Z,1.50
2022-11-20T12:57:04.252Z,1.50
2022-11-20T13:00:04.698Z,1.60
2022-11-20T13:02:45.784Z,1.50
2022-11-20T13:05:23.838Z,1.60
2022-11-20T13:07:55.151Z,1.60
2022-11-20T13:10:31.651Z,1.60
2022-11-20T13:13:07.081Z,1.70
2022-11-20T13:15:46.938Z,1.70
2022-11-20T13:18:15.935Z,1.80
2022-11-20T13:20:45.348Z,1.80
2022-11-20T13:23:24.803Z,1.80
2022-11-20T13:25:53.790Z,1.90
2022-11-20T13:28:31.912Z,1.90
2022-11-20T13:31:00.999Z,1.90
2022-11-20T13:33:34.757Z,1.90
2022-11-20T13:36:04.983Z,1.90
2022-11-20T13:38:46.010Z,1.90
2022-11-20T13:41:33.111Z,1.90
2022-11-20T13:44:13.224Z,1.90
2022-11-20T13:46:44.964Z,1.90
2022-11-20T13:49:20.261Z,1.90
2022-11-20T13:51:51.675Z,1.80
2022-11-20T13:54:52.861Z,1.70
2022-11-20T13:57:40.049Z,1.70
2022-11-20T14:00:14.543Z,1.50
2022-11-20T14:02:43.545Z,1.50
2022-11-20T14:05:22.363Z,1.50
2022-11-20T14:07:53.924Z,1.50
2022-11-20T14:10:28.363Z,1.50
2022-11-20T14:13:11.546Z,1.40
2022-11-20T14:15:44.889Z,1.40
2022-11-20T14:18:16.583Z,1.40
2022-11-20T14:20:45.840Z,1.40
2022-11-20T14:23:14.203Z,1.50
2022-11-20T14:25:47.111Z,1.40
2022-11-20T14:28:27.355Z,1.50
2022-11-20T14:30:58.312Z,1.40
2022-11-20T14:33:29.611Z,1.40
2022-11-20T14:36:00.422Z,1.40
2022-11-20T14:38:30.856Z,1.40
2022-11-20T14:41:08.975Z,1.40
2022-11-20T14:43:38.853Z,1.40
2022-11-20T14:46:10.337Z,1.30
2022-11-20T14:48:42.960Z,1.30
2022-11-20T14:51:12.531Z,1.40
2022-11-20T14:53:40.962Z,1.30
2022-11-20T14:56:11.079Z,1.30
2022-11-20T14:58:39.404Z,1.30
2022-11-20T15:01:14.817Z,1.30
2022-11-20T15:03:43.579Z,1.30
2022-11-20T15:06:14.143Z,1.30
2022-11-20T15:08:53.157Z,1.30
2022-11-20T15:11:27.805Z,1.30
2022-11-20T15:13:56.338Z,1.30
2022-11-20T15:16:28.861Z,1.30
2022-11-20T15:18:57.334Z,1.30
2022-11-20T15:21:25.957Z,1.30
2022-11-20T15:23:54.752Z,1.30
2022-11-20T15:26:27.552Z,1.30
2022-11-20T15:28:56.364Z,1.30
2022-11-20T15:31:26.068Z,1.20
2022-11-20T15:33:54.325Z,1.20
2022-11-20T15:36:22.728Z,1.20
2022-11-20T15:38:51.185Z,1.20
2022-11-20T15:41:19.443Z,1.20
2022-11-20T15:43:47.689Z,1.10
2022-11-20T15:46:18.107Z,1.10
2022-11-20T15:48:52.189Z,1.10
2022-11-20T15:51:27.444Z,1.10
2022-11-20T15:53:57.830Z,1.00
2022-11-20T15:56:26.642Z,1.00
2022-11-20T15:58:55.309Z,1.00
2022-11-20T16:01:24.647Z,1.00
2022-11-20T16:03:54.310Z,1.00
2022-11-20T16:06:22.659Z,0.90
2022-11-20T16:08:50.947Z,0.90
2022-11-20T16:11:20.141Z,0.90
2022-11-20T16:14:05.826Z,0.90
2022-11-20T16:16:36.376Z,0.90
2022-11-20T16:19:06.250Z,0.90
2022-11-20T16:21:35.810Z,0.90
2022-11-20T16:24:07.199Z,0.80
2022-11-20T16:26:35.987Z,0.80
2022-11-20T16:29:06.580Z,0.80
2022-11-20T16:31:35.547Z,0.80
2022-11-20T16:34:11.835Z,0.80
2022-11-20T16:36:42.456Z,0.70
2022-11-20T16:39:10.895Z,0.70
2022-11-20T16:41:39.385Z,0.70
2022-11-20T16:44:10.784Z,0.70
2022-11-20T16:46:41.009Z,0.70
2022-11-20T16:49:15.009Z,0.70
2022-11-20T16:51:43.393Z,0.70
2022-11-20T16:54:16.431Z,0.70
2022-11-20T16:56:48.539Z,0.70
2022-11-20T16:59:16.862Z,0.70
2022-11-20T17:01:45.307Z,0.70
2022-11-20T17:04:15.087Z,0.70
2022-11-20T17:06:45.313Z,0.70
2022-11-20T17:09:13.882Z,0.70
2022-11-20T17:11:42.276Z,0.70
2022-11-20T17:14:12.502Z,0.70
2022-11-20T17:16:41.040Z,0.70
2022-11-20T17:19:09.692Z,0.70
2022-11-20T17:21:40.403Z,0.70
2022-11-20T17:24:10.896Z,0.70
2022-11-20T17:26:41.011Z,0.60
2022-11-20T17:29:12.808Z,0.60
2022-11-20T17:31:41.288Z,0.60
2022-11-20T17:34:12.910Z,0.50
2022-11-20T17:36:45.806Z,0.50
2022-11-20T17:39:15.528Z,0.50
2022-11-20T17:41:44.168Z,0.40
2022-11-20T17:44:14.205Z,0.30
2022-11-20T17:46:42.536Z,0.30
2022-11-20T17:49:10.940Z,0.30
2022-11-20T17:51:42.150Z,0.30
2022-11-20T17:54:12.559Z,0.30
2022-11-20T17:56:58.266Z,0.30
2022-11-20T17:59:26.619Z,0.20
2022-11-20T18:01:56.776Z,0.20
2022-11-20T18:04:27.928Z,0.20
2022-11-20T18:06:57.743Z,0.20
2022-11-20T18:09:26.356Z,0.30
2022-11-20T18:11:54.781Z,0.20
2022-11-20T18:14:34.424Z,0.30
2022-11-20T18:17:04.663Z,0.30
2022-11-20T18:19:38.762Z,0.30
2022-11-20T18:22:11.360Z,0.30
2022-11-20T18:24:40.143Z,0.30
2022-11-20T18:27:10.055Z,0.30
2022-11-20T18:29:38.530Z,0.30
2022-11-20T18:32:07.067Z,0.30
2022-11-20T18:34:35.486Z,0.20
2022-11-20T18:37:03.959Z,0.20
2022-11-20T18:39:33.665Z,0.10
2022-11-20T18:42:20.383Z,0.10
2022-11-20T18:44:55.117Z,0.10
2022-11-20T18:47:25.396Z,0.10
2022-11-20T18:49:57.232Z,0.10
2022-11-20T18:52:27.031Z,0.10
2022-11-20T18:54:57.331Z,0.10
2022-11-20T18:57:28.217Z,0.10
2022-11-20T19:00:03.574Z,0.00
2022-11-20T19:02:41.467Z,0.00
2022-11-20T19:05:11.425Z,0.00
2022-11-20T19:07:39.925Z,0.00
2022-11-20T19:10:10.065Z,0.00
2022-11-20T19:12:38.567Z,0.00
2022-11-20T19:15:07.806Z,0.00
2022-11-20T19:17:36.170Z,0.00
2022-11-20T19:20:07.057Z,0.00
2022-11-20T19:22:35.374Z,0.10
2022-11-20T19:25:03.604Z,0.10
2022-11-20T19:27:33.387Z,0.10
2022-11-20T19:30:03.769Z,0.10
2022-11-20T19:32:32.626Z,0.20
2022-11-20T19:35:01.035Z,0.20
2022-11-20T19:37:29.336Z,0.20
2022-11-20T19:39:59.738Z,0.30
2022-11-20T19:42:28.148Z,0.40
2022-11-20T19:44:58.251Z,0.40
2022-11-20T19:47:45.983Z,0.40
2022-11-20T19:50:15.952Z,0.50
2022-11-20T19:52:44.210Z,0.50
2022-11-20T19:55:12.557Z,0.60
2022-11-20T19:57:40.786Z,0.60
2022-11-20T20:00:12.435Z,0.60
2022-11-20T20:02:42.080Z,0.60
2022-11-20T20:05:10.880Z,0.60
2022-11-20T20:07:43.436Z,0.70
2022-11-20T20:10:12.043Z,0.70
2022-11-20T20:12:40.425Z,0.70
2022-11-20T20:15:11.065Z,0.80
2022-11-20T20:17:40.730Z,0.80
2022-11-20T20:20:12.186Z,0.80
2022-11-20T20:22:40.482Z,0.80
2022-11-20T20:25:10.132Z,0.90
2022-11-20T20:27:38.913Z,0.90
2022-11-20T20:30:12.226Z,1.00
2022-11-20T20:32:40.753Z,1.00
2022-11-20T20:35:10.078Z,1.10
2022-11-20T20:37:38.350Z,1.10
2022-11-20T20:40:10.950Z,1.20
2022-11-20T20:42:43.077Z,1.20
2022-11-20T20:45:13.087Z,1.20
2022-11-20T20:47:42.641Z,1.30
2022-11-20T20:50:13.167Z,1.30
2022-11-20T20:52:41.904Z,1.30
2022-11-20T20:55:11.122Z,1.40
2022-11-20T20:57:39.986Z,1.40
2022-11-20T21:00:09.233Z,1.50
2022-11-20T21:02:39.097Z,1.50
2022-11-20T21:05:08.135Z,1.60
2022-11-20T21:07:57.247Z,1.60
2022-11-20T21:10:25.843Z,1.60
2022-11-20T21:12:54.106Z,1.60
2022-11-20T21:15:22.516Z,1.60
2022-11-20T21:17:52.265Z,1.60
2022-11-20T21:20:37.812Z,1.70
2022-11-20T21:23:10.263Z,1.70
2022-11-20T21:25:39.596Z,1.70
2022-11-20T21:28:07.913Z,1.80
2022-11-20T21:30:36.405Z,1.80
2022-11-20T21:33:06.194Z,1.90
2022-11-20T21:35:35.260Z,1.90
2022-11-20T21:38:03.498Z,1.90
2022-11-20T21:40:32.215Z,1.90
2022-11-20T21:43:00.718Z,2.00
2022-11-20T21:45:29.222Z,2.00
2022-11-20T21:47:57.632Z,2.00
2022-11-20T21:50:27.562Z,2.00
2022-11-20T21:52:55.837Z,2.10
2022-11-20T21:55:24.155Z,2.10
2022-11-20T21:57:52.440Z,2.20
2022-11-20T22:00:21.763Z,2.20
2022-11-20T22:02:50.379Z,2.20
2022-11-20T22:05:18.908Z,2.20
2022-11-20T22:07:48.752Z,2.20
2022-11-20T22:10:18.826Z,2.20
2022-11-20T22:12:47.115Z,2.20
2022-11-20T22:15:23.716Z,2.20
2022-11-20T22:18:18.089Z,2.20
2022-11-20T22:20:46.417Z,2.20
2022-11-20T22:23:16.096Z,2.20
2022-11-20T22:25:44.455Z,2.20
2022-11-20T22:28:12.813Z,2.30
2022-11-20T22:30:41.179Z,2.30
2022-11-20T22:33:13.465Z,2.20
2022-11-20T22:35:42.226Z,2.20
2022-11-20T22:38:11.676Z,2.30
2022-11-20T22:40:43.794Z,2.30
2022-11-20T22:43:12.129Z,2.30
2022-11-20T22:45:40.715Z,2.30
2022-11-20T22:48:09.070Z,2.30
2022-11-20T22:50:37.486Z,2.30
2022-11-20T22:53:08.229Z,2.30
2022-11-20T22:55:37.151Z,2.30
2022-11-20T22:58:06.994Z,2.30
2022-11-20T23:00:35.456Z,2.30
2022-11-20T23:03:04.691Z,2.30
2022-11-20T23:05:33.859Z,2.30
2022-11-20T23:08:02.105Z,2.30
2022-11-20T23:10:30.534Z,2.40
2022-11-20T23:12:58.917Z,2.40
2022-11-20T23:15:28.621Z,2.40
2022-11-20T23:17:56.982Z,2.40
2022-11-20T23:20:25.532Z,2.40
2022-11-20T23:22:53.786Z,2.40
2022-11-20T23:25:22.259Z,2.40
2022-11-20T23:27:50.549Z,2.40
2022-11-20T23:30:19.114Z,2.40
2022-11-20T23:32:48.852Z,2.50
2022-11-20T23:35:17.536Z,2.50
2022-11-20T23:37:45.835Z,2.50
2022-11-20T23:40:14.308Z,2.50
2022-11-20T23:43:03.339Z,2.50
2022-11-20T23:45:31.836Z,2.60
2022-11-20T23:48:01.492Z,2.60
2022-11-20T23:50:29.863Z,2.60
2022-11-20T23:52:58.133Z,2.60
2022-11-20T23:55:26.645Z,2.60
2022-11-20T23:57:54.935Z,2.60
